createdAt,value
2019-03-08T00:02:17.920Z,99.90
2019-03-08T00:04:48.367Z,99.90
2019-03-08T00:07:19.011Z,99.90
2019-03-08T00:09:49.501Z,99.90
2019-03-08T00:12:20.013Z,99.90
2019-03-08T00:14:50.340Z,99.90
2019-03-08T00:17:20.609Z,99.90
2019-03-08T00:19:50.817Z,99.90
2019-03-08T00:22:21.284Z,99.90
2019-03-08T00:24:51.606Z,99.90
2019-03-08T00:27:21.798Z,99.90
2019-03-08T00:29:52.281Z,99.90
2019-03-08T00:32:22.491Z,99.90
2019-03-08T00:34:53.092Z,99.90
2019-03-08T00:37:24.493Z,99.90
2019-03-08T00:39:54.759Z,99.90
2019-03-08T00:42:25.304Z,99.90
2019-03-08T00:44:55.613Z,99.90
2019-03-08T00:47:25.887Z,99.90
2019-03-08T00:49:56.785Z,99.90
2019-03-08T00:52:27.009Z,99.90
2019-03-08T00:54:57.250Z,99.90
2019-03-08T00:57:27.791Z,99.90
2019-03-08T00:59:57.947Z,99.90
2019-03-08T01:02:28.615Z,99.90
2019-03-08T01:04:58.858Z,99.90
2019-03-08T01:07:29.199Z,99.90
2019-03-08T01:10:00.035Z,99.90
2019-03-08T01:12:30.432Z,99.90
2019-03-08T01:15:00.620Z,99.90
2019-03-08T01:17:30.831Z,99.90
2019-03-08T01:20:01.168Z,99.90
2019-03-08T01:22:31.495Z,99.90
2019-03-08T01:25:02.197Z,99.90
2019-03-08T01:27:32.522Z,99.90
2019-03-08T01:30:02.880Z,99.90
2019-03-08T01:32:33.323Z,99.90
2019-03-08T01:35:04.647Z,99.90
2019-03-08T01:37:35.020Z,99.90
2019-03-08T01:40:06.202Z,99.90
2019-03-08T01:42:36.676Z,99.90
2019-03-08T01:45:07.734Z,99.90
2019-03-08T01:47:38.312Z,99.90
2019-03-08T01:50:08.884Z,99.90
2019-03-08T01:52:39.623Z,99.90
2019-03-08T01:55:10.290Z,99.90
2019-03-08T01:57:40.481Z,99.90
2019-03-08T02:00:14.091Z,99.90
2019-03-08T02:02:44.705Z,99.90
2019-03-08T02:05:16.630Z,99.90
2019-03-08T02:07:47.170Z,99.90
2019-03-08T02:10:17.832Z,99.90
2019-03-08T02:12:48.083Z,99.90
2019-03-08T02:15:19.914Z,99.90
2019-03-08T02:17:50.496Z,99.90
2019-03-08T02:20:21.605Z,99.90
2019-03-08T02:22:51.878Z,99.90
2019-03-08T02:25:22.405Z,99.90
2019-03-08T02:27:52.595Z,99.90
2019-03-08T02:30:22.861Z,99.90
2019-03-08T02:32:54.221Z,99.90
2019-03-08T02:35:24.535Z,99.90
2019-03-08T02:37:55.813Z,99.90
2019-03-08T02:40:31.151Z,99.90
2019-03-08T02:43:01.865Z,99.90
2019-03-08T02:45:32.100Z,99.90
2019-03-08T02:48:02.750Z,99.90
2019-03-08T02:50:34.340Z,99.90
2019-03-08T02:53:05.128Z,99.90
2019-03-08T02:55:36.339Z,99.90
2019-03-08T02:58:06.973Z,99.90
2019-03-08T03:00:47.072Z,99.90
2019-03-08T03:03:18.173Z,99.90
2019-03-08T03:05:48.919Z,99.90
2019-03-08T03:08:19.166Z,99.90
2019-03-08T03:10:49.352Z,99.90
2019-03-08T03:13:19.649Z,99.90
2019-03-08T03:15:50.105Z,99.90
2019-03-08T03:18:20.419Z,99.90
2019-03-08T03:20:51.268Z,99.90
2019-03-08T03:23:21.507Z,99.90
2019-03-08T03:25:52.436Z,99.90
2019-03-08T03:28:22.965Z,99.90
2019-03-08T03:30:53.203Z,99.90
2019-03-08T03:33:23.485Z,99.90
2019-03-08T03:35:53.727Z,99.90
2019-03-08T03:38:24.431Z,99.90
2019-03-08T03:40:54.671Z,99.90
2019-03-08T03:43:25.210Z,99.90
2019-03-08T03:45:55.369Z,99.90
2019-03-08T03:48:25.661Z,99.90
2019-03-08T03:50:55.884Z,99.90
2019-03-08T03:53:26.090Z,99.90
2019-03-08T03:55:56.264Z,99.90
2019-03-08T03:58:26.532Z,99.90
2019-03-08T04:00:56.770Z,99.90
2019-03-08T04:03:27.002Z,99.90
2019-03-08T04:05:57.196Z,99.90
2019-03-08T04:08:27.408Z,99.90
2019-03-08T04:10:58.181Z,99.90
2019-03-08T04:13:28.566Z,99.90
2019-03-08T04:15:58.795Z,99.90
2019-03-08T04:18:28.994Z,99.90
2019-03-08T04:20:59.259Z,99.90
2019-03-08T04:23:29.913Z,99.90
2019-03-08T04:26:00.061Z,99.90
2019-03-08T04:28:30.659Z,99.90
2019-03-08T04:31:00.992Z,99.90
2019-03-08T04:33:31.201Z,99.90
2019-03-08T04:36:01.729Z,99.90
2019-03-08T04:38:31.999Z,99.90
2019-03-08T04:41:02.253Z,99.90
2019-03-08T04:43:32.541Z,99.90
2019-03-08T04:46:02.741Z,99.90
2019-03-08T04:48:33.019Z,99.90
2019-03-08T04:51:03.985Z,99.90
2019-03-08T04:53:34.611Z,99.90
2019-03-08T04:56:04.869Z,99.90
2019-03-08T04:58:36.205Z,99.90
2019-03-08T05:01:06.725Z,99.90
2019-03-08T05:03:37.023Z,99.90
2019-03-08T05:06:07.685Z,99.90
2019-03-08T05:08:37.926Z,99.90
2019-03-08T05:11:09.198Z,99.90
2019-03-08T05:13:39.497Z,99.90
2019-03-08T05:16:09.951Z,99.90
2019-03-08T05:18:40.149Z,99.90
2019-03-08T05:21:10.759Z,99.90
2019-03-08T05:23:41.017Z,99.90
2019-03-08T05:26:11.619Z,99.90
2019-03-08T05:28:42.211Z,99.90
2019-03-08T05:31:12.459Z,99.90
2019-03-08T05:33:42.658Z,99.90
2019-03-08T05:36:12.760Z,99.90
2019-03-08T05:38:43.058Z,99.90
2019-03-08T05:41:13.686Z,99.90
2019-03-08T05:43:43.916Z,99.90
2019-03-08T05:46:14.124Z,99.90
2019-03-08T05:48:44.425Z,99.90
2019-03-08T05:51:14.976Z,99.90
2019-03-08T05:53:45.258Z,99.90
2019-03-08T05:56:15.824Z,99.90
2019-03-08T05:58:46.088Z,99.90
2019-03-08T06:01:16.254Z,99.90
2019-03-08T06:03:46.898Z,99.90
2019-03-08T06:06:17.158Z,99.90
2019-03-08T06:08:47.584Z,99.90
2019-03-08T06:11:17.800Z,99.90
2019-03-08T06:13:48.068Z,99.90
2019-03-08T06:16:18.325Z,99.90
2019-03-08T06:18:48.522Z,99.90
2019-03-08T06:21:18.784Z,99.90
2019-03-08T06:23:49.068Z,99.90
2019-03-08T06:26:19.367Z,99.90
2019-03-08T06:28:49.635Z,99.90
2019-03-08T06:31:19.880Z,99.90
2019-03-08T06:33:50.124Z,99.90
2019-03-08T06:36:20.649Z,99.90
2019-03-08T06:38:51.159Z,99.90
2019-03-08T06:41:21.371Z,99.90
2019-03-08T06:43:51.648Z,99.90
2019-03-08T06:46:21.893Z,99.90
2019-03-08T06:48:52.129Z,99.90
2019-03-08T06:51:22.481Z,99.90
2019-03-08T06:53:52.767Z,99.90
2019-03-08T06:56:22.955Z,99.90
2019-03-08T06:59:08.014Z,99.90
2019-03-08T07:01:40.482Z,99.90
2019-03-08T07:04:11.097Z,99.90
2019-03-08T07:06:41.329Z,99.90
2019-03-08T07:09:12.942Z,99.90
2019-03-08T07:11:43.807Z,99.90
2019-03-08T07:14:14.129Z,99.90
2019-03-08T07:16:44.782Z,99.90
2019-03-08T07:19:14.998Z,99.90
2019-03-08T07:21:57.520Z,99.90
2019-03-08T07:24:37.010Z,99.90
2019-03-08T07:27:21.203Z,99.90
2019-03-08T07:30:21.879Z,99.90
2019-03-08T07:33:12.427Z,99.90
2019-03-08T07:36:04.596Z,99.90
2019-03-08T07:38:46.163Z,99.90
2019-03-08T07:41:32.407Z,99.90
2019-03-08T07:44:21.527Z,99.90
2019-03-08T07:47:04.417Z,99.90
2019-03-08T07:49:56.381Z,99.90
2019-03-08T07:52:38.405Z,99.90
2019-03-08T07:55:18.128Z,99.90
2019-03-08T07:57:58.934Z,99.90
2019-03-08T08:00:54.002Z,99.90
2019-03-08T08:03:43.496Z,99.90
2019-03-08T08:06:27.435Z,99.90
2019-03-08T08:09:15.237Z,99.90
2019-03-08T08:12:10.192Z,99.90
2019-03-08T08:14:57.976Z,99.90
2019-03-08T08:17:41.316Z,99.90
2019-03-08T08:20:30.541Z,99.90
2019-03-08T08:23:09.337Z,99.90
2019-03-08T08:26:07.960Z,99.90
2019-03-08T08:28:51.537Z,99.90
2019-03-08T08:31:40.773Z,99.90
2019-03-08T08:34:42.372Z,99.90
2019-03-08T08:37:50.298Z,99.90
2019-03-08T08:40:38.095Z,99.90
2019-03-08T08:43:30.546Z,99.90
2019-03-08T08:46:08.858Z,99.90
2019-03-08T08:49:00.954Z,99.90
2019-03-08T08:51:43.081Z,99.90
2019-03-08T08:54:26.783Z,99.90
2019-03-08T08:57:15.401Z,99.90
2019-03-08T09:00:10.894Z,99.90
2019-03-08T09:03:06.528Z,99.90
2019-03-08T09:05:50.378Z,99.90
2019-03-08T09:08:37.689Z,99.90
2019-03-08T09:11:26.922Z,99.90
2019-03-08T09:14:03.436Z,99.90
2019-03-08T09:16:52.635Z,99.90
2019-03-08T09:19:51.481Z,99.90
2019-03-08T09:22:46.868Z,99.90
2019-03-08T09:25:34.464Z,99.90
2019-03-08T09:28:39.021Z,99.90
2019-03-08T09:31:31.292Z,99.90
2019-03-08T09:34:32.545Z,99.90
2019-03-08T09:37:13.749Z,99.90
2019-03-08T09:39:56.394Z,99.90
2019-03-08T09:42:51.796Z,99.90
2019-03-08T09:45:47.331Z,99.90
2019-03-08T09:48:37.812Z,99.90
2019-03-08T09:51:15.623Z,99.90
2019-03-08T09:54:10.656Z,99.90
2019-03-08T09:56:56.436Z,99.90
2019-03-08T09:59:31.829Z,99.90
2019-03-08T10:02:11.389Z,99.90
2019-03-08T10:05:00.933Z,99.90
2019-03-08T10:07:56.266Z,99.90
2019-03-08T10:10:34.885Z,99.90
2019-03-08T10:13:36.028Z,99.90
2019-03-08T10:16:20.361Z,99.90
2019-03-08T10:18:57.590Z,99.90
2019-03-08T10:21:45.752Z,99.90
2019-03-08T10:24:31.728Z,99.90
2019-03-08T10:27:21.260Z,99.90
2019-03-08T10:30:18.106Z,99.90
2019-03-08T10:32:57.152Z,99.90
2019-03-08T10:35:40.410Z,99.90
2019-03-08T10:38:32.634Z,99.90
2019-03-08T10:41:21.853Z,99.90
2019-03-08T10:44:08.945Z,95.40
2019-03-08T10:46:57.420Z,95.10
2019-03-08T10:49:55.038Z,96.80
2019-03-08T10:52:30.793Z,99.90
2019-03-08T10:55:22.783Z,99.90
2019-03-08T10:58:14.953Z,99.90
2019-03-08T11:01:10.548Z,99.90
2019-03-08T11:04:00.321Z,99.90
2019-03-08T11:06:38.454Z,99.90
2019-03-08T11:09:39.075Z,99.90
2019-03-08T11:12:34.377Z,99.90
2019-03-08T11:15:12.842Z,99.90
2019-03-08T11:17:53.080Z,99.90
2019-03-08T11:20:36.385Z,99.90
2019-03-08T11:23:35.811Z,99.90
2019-03-08T11:26:32.262Z,99.90
2019-03-08T11:29:24.371Z,99.90
2019-03-08T11:32:28.992Z,99.90
2019-03-08T11:35:16.009Z,99.90
2019-03-08T11:38:20.440Z,99.90
2019-03-08T11:41:07.663Z,99.90
2019-03-08T11:44:00.136Z,99.90
2019-03-08T11:46:39.564Z,99.90
2019-03-08T11:49:28.113Z,99.90
2019-03-08T11:52:20.343Z,99.90
2019-03-08T11:55:15.490Z,99.90
2019-03-08T11:58:03.313Z,99.90
2019-03-08T12:01:08.381Z,96.10
2019-03-08T12:04:06.962Z,96.10
2019-03-08T12:07:02.728Z,99.90
2019-03-08T12:09:47.686Z,97.70
2019-03-08T12:12:41.722Z,93.90
2019-03-08T12:15:50.704Z,90.00
2019-03-08T12:18:38.311Z,89.00
2019-03-08T12:21:27.913Z,85.10
2019-03-08T12:24:07.197Z,90.70
2019-03-08T12:26:59.464Z,95.10
2019-03-08T12:29:48.664Z,99.90
2019-03-08T12:32:43.892Z,99.90
2019-03-08T12:35:51.664Z,99.90
2019-03-08T12:38:44.054Z,99.90
2019-03-08T12:41:32.193Z,99.90
2019-03-08T12:44:19.678Z,99.90
2019-03-08T12:47:09.003Z,99.90
2019-03-08T12:50:04.426Z,99.90
2019-03-08T12:52:45.431Z,99.90
2019-03-08T12:55:33.393Z,99.10
2019-03-08T12:58:21.776Z,99.80
2019-03-08T13:01:17.313Z,99.90
2019-03-08T13:04:09.696Z,99.90
2019-03-08T13:06:58.990Z,99.90
2019-03-08T13:09:38.033Z,99.90
2019-03-08T13:12:08.658Z,99.90
2019-03-08T13:14:39.105Z,99.90
2019-03-08T13:17:09.696Z,99.90
2019-03-08T13:19:40.245Z,99.90
2019-03-08T13:22:10.804Z,99.90
2019-03-08T13:24:41.166Z,99.90
2019-03-08T13:27:11.543Z,95.20
2019-03-08T13:29:41.791Z,91.90
2019-03-08T13:32:12.643Z,89.70
2019-03-08T13:34:43.048Z,87.10
2019-03-08T13:37:13.325Z,90.60
2019-03-08T13:39:43.704Z,95.70
2019-03-08T13:42:13.953Z,97.10
2019-03-08T13:44:44.313Z,99.90
2019-03-08T13:47:14.675Z,99.90
2019-03-08T13:49:45.345Z,99.90
2019-03-08T13:52:15.839Z,98.70
2019-03-08T13:54:46.201Z,97.60
2019-03-08T13:57:17.152Z,95.40
2019-03-08T13:59:47.790Z,96.70
2019-03-08T14:02:18.119Z,97.70
2019-03-08T14:04:48.648Z,96.10
2019-03-08T14:07:19.461Z,99.10
2019-03-08T14:09:49.974Z,99.90
2019-03-08T14:12:20.351Z,99.90
2019-03-08T14:14:52.166Z,98.40
2019-03-08T14:17:22.389Z,97.50
2019-03-08T14:19:52.700Z,96.80
2019-03-08T14:22:23.014Z,99.00
2019-03-08T14:24:53.359Z,99.90
2019-03-08T14:27:24.140Z,99.90
2019-03-08T14:29:55.223Z,99.90
2019-03-08T14:32:26.977Z,99.90
2019-03-08T14:34:57.279Z,99.90
2019-03-08T14:37:27.818Z,99.90
2019-03-08T14:39:58.545Z,99.90
2019-03-08T14:42:37.014Z,99.90
2019-03-08T14:45:22.490Z,99.90
2019-03-08T14:47:55.194Z,99.90
2019-03-08T14:50:25.404Z,99.90
2019-03-08T14:52:56.805Z,99.90
2019-03-08T14:55:28.270Z,99.90
2019-03-08T14:57:59.097Z,99.90
2019-03-08T15:00:31.010Z,99.90
2019-03-08T15:03:01.305Z,99.90
2019-03-08T15:05:32.119Z,99.90
2019-03-08T15:08:03.053Z,99.90
2019-03-08T15:10:39.348Z,99.90
2019-03-08T15:13:06.897Z,99.90
2019-03-08T15:15:37.151Z,99.90
2019-03-08T15:18:07.327Z,99.90
2019-03-08T15:20:37.977Z,99.90
2019-03-08T15:23:08.271Z,99.90
2019-03-08T15:25:38.477Z,99.90
2019-03-08T15:28:08.709Z,99.90
2019-03-08T15:30:38.993Z,99.90
2019-03-08T15:33:09.629Z,99.90
2019-03-08T15:35:39.857Z,99.90
2019-03-08T15:38:10.156Z,99.90
2019-03-08T15:40:40.582Z,99.90
2019-03-08T15:43:13.575Z,99.90
2019-03-08T15:45:44.661Z,99.90
2019-03-08T15:48:15.934Z,99.90
2019-03-08T15:50:47.825Z,99.90
2019-03-08T15:53:20.560Z,99.90
2019-03-08T15:55:53.292Z,99.90
2019-03-08T15:58:22.819Z,99.90
2019-03-08T16:00:53.069Z,99.90
2019-03-08T16:03:23.306Z,99.90
2019-03-08T16:05:53.993Z,99.90
2019-03-08T16:08:24.165Z,99.90
2019-03-08T16:10:54.679Z,99.90
2019-03-08T16:13:25.953Z,99.90
2019-03-08T16:15:56.627Z,99.90
2019-03-08T16:18:27.465Z,99.90
2019-03-08T16:20:57.769Z,99.90
2019-03-08T16:23:28.049Z,99.90
2019-03-08T16:25:58.271Z,99.90
2019-03-08T16:28:28.353Z,99.90
2019-03-08T16:31:17.319Z,99.90
2019-03-08T16:33:50.118Z,99.90
2019-03-08T16:36:32.344Z,99.90
2019-03-08T16:39:12.876Z,99.90
2019-03-08T16:42:05.042Z,99.90
2019-03-08T16:44:54.020Z,99.90
2019-03-08T16:47:36.808Z,99.90
2019-03-08T16:50:22.153Z,99.90
2019-03-08T16:53:06.428Z,99.90
2019-03-08T16:55:57.680Z,99.90
2019-03-08T16:58:46.163Z,99.90
2019-03-08T17:01:30.162Z,99.90
2019-03-08T17:04:24.547Z,99.90
2019-03-08T17:07:14.111Z,99.90
2019-03-08T17:10:04.713Z,99.90
2019-03-08T17:12:53.690Z,99.90
2019-03-08T17:15:41.828Z,99.90
2019-03-08T17:18:24.247Z,99.90
2019-03-08T17:21:10.045Z,99.90
2019-03-08T17:23:59.249Z,99.90
2019-03-08T17:26:51.696Z,99.90
2019-03-08T17:29:41.306Z,99.90
2019-03-08T17:32:26.867Z,99.90
2019-03-08T17:35:13.929Z,99.90
2019-03-08T17:37:53.942Z,99.90
2019-03-08T17:40:41.190Z,99.90
2019-03-08T17:43:21.156Z,99.90
2019-03-08T17:45:58.017Z,99.90
2019-03-08T17:48:59.173Z,99.90
2019-03-08T17:52:00.679Z,99.90
2019-03-08T17:55:05.217Z,99.90
2019-03-08T17:57:48.106Z,99.90
2019-03-08T18:00:40.392Z,99.90
2019-03-08T18:03:20.123Z,99.90
2019-03-08T18:05:56.703Z,99.90
2019-03-08T18:08:43.783Z,99.90
2019-03-08T18:11:48.489Z,99.90
2019-03-08T18:14:34.655Z,99.90
2019-03-08T18:17:23.944Z,99.90
2019-03-08T18:20:25.534Z,99.90
2019-03-08T18:23:08.968Z,99.90
2019-03-08T18:25:58.296Z,99.90
2019-03-08T18:28:41.587Z,99.90
2019-03-08T18:31:42.909Z,99.90
2019-03-08T18:34:47.191Z,99.90
2019-03-08T18:37:54.693Z,99.90
2019-03-08T18:40:41.420Z,99.90
2019-03-08T18:43:33.369Z,99.90
2019-03-08T18:46:21.220Z,99.90
2019-03-08T18:49:03.267Z,99.90
2019-03-08T18:51:52.008Z,99.90
2019-03-08T18:54:41.792Z,99.90
2019-03-08T18:57:30.970Z,99.90
2019-03-08T19:00:26.688Z,99.90
2019-03-08T19:03:19.146Z,99.90
2019-03-08T19:06:08.368Z,99.90
2019-03-08T19:08:54.807Z,99.90
2019-03-08T19:11:35.798Z,99.90
2019-03-08T19:14:24.270Z,99.90
2019-03-08T19:17:14.240Z,99.90
2019-03-08T19:19:52.631Z,99.90
2019-03-08T19:22:33.318Z,99.90
2019-03-08T19:25:28.226Z,99.90
2019-03-08T19:28:23.193Z,99.90
2019-03-08T19:31:11.828Z,99.90
2019-03-08T19:34:19.277Z,99.90
2019-03-08T19:37:03.333Z,99.90
2019-03-08T19:39:51.260Z,99.90
2019-03-08T19:42:49.374Z,99.90
2019-03-08T19:45:44.545Z,99.90
2019-03-08T19:48:22.175Z,99.90
2019-03-08T19:51:20.763Z,99.90
2019-03-08T19:54:16.108Z,99.90
2019-03-08T19:57:04.362Z,99.90
2019-03-08T19:59:52.235Z,99.90
2019-03-08T20:02:41.946Z,99.90
2019-03-08T20:05:34.470Z,99.90
2019-03-08T20:08:30.084Z,99.90
2019-03-08T20:11:34.582Z,99.90
2019-03-08T20:14:29.554Z,99.90
2019-03-08T20:17:19.569Z,99.90
2019-03-08T20:20:07.488Z,99.90
2019-03-08T20:22:45.703Z,99.90
2019-03-08T20:25:28.848Z,99.90
2019-03-08T20:28:05.415Z,99.90
2019-03-08T20:31:06.881Z,99.90
2019-03-08T20:34:14.348Z,99.90
2019-03-08T20:37:03.642Z,99.90
2019-03-08T20:39:55.977Z,99.90
2019-03-08T20:42:42.786Z,99.90
2019-03-08T20:45:41.706Z,99.90
2019-03-08T20:48:12.152Z,99.90
2019-03-08T20:50:42.727Z,99.90
2019-03-08T20:53:13.267Z,99.90
2019-03-08T20:55:44.090Z,99.90
2019-03-08T20:58:14.381Z,99.90
2019-03-08T21:00:45.544Z,99.90
2019-03-08T21:03:21.484Z,99.90
2019-03-08T21:05:51.478Z,99.90
2019-03-08T21:08:21.732Z,99.90
2019-03-08T21:10:52.084Z,99.90
2019-03-08T21:13:22.354Z,99.90
2019-03-08T21:15:52.707Z,99.90
2019-03-08T21:18:23.297Z,99.90
2019-03-08T21:20:53.505Z,99.90
2019-03-08T21:23:23.655Z,99.90
2019-03-08T21:25:53.945Z,99.90
2019-03-08T21:28:24.181Z,99.90
2019-03-08T21:30:54.753Z,99.90
2019-03-08T21:33:25.038Z,99.90
2019-03-08T21:35:56.489Z,99.90
2019-03-08T21:38:26.895Z,99.90
2019-03-08T21:40:57.556Z,99.90
2019-03-08T21:43:28.141Z,99.90
2019-03-08T21:45:59.041Z,99.90
2019-03-08T21:48:30.684Z,99.90
2019-03-08T21:51:00.949Z,99.90
2019-03-08T21:53:32.806Z,99.90
2019-03-08T21:56:03.070Z,99.90
2019-03-08T21:58:33.440Z,99.90
2019-03-08T22:01:04.682Z,99.90
2019-03-08T22:03:34.962Z,99.90
2019-03-08T22:06:05.672Z,99.90
2019-03-08T22:08:37.536Z,99.90
2019-03-08T22:11:20.202Z,99.90
2019-03-08T22:13:50.328Z,99.90
2019-03-08T22:16:20.802Z,99.90
2019-03-08T22:18:51.058Z,99.90
2019-03-08T22:21:21.350Z,99.90
2019-03-08T22:23:52.804Z,99.90
2019-03-08T22:26:22.986Z,99.90
2019-03-08T22:28:53.280Z,99.90
2019-03-08T22:31:23.709Z,99.90
2019-03-08T22:33:53.971Z,99.90
2019-03-08T22:36:25.343Z,99.90
2019-03-08T22:38:55.638Z,99.90
2019-03-08T22:41:25.957Z,99.90
2019-03-08T22:43:56.588Z,99.90
2019-03-08T22:46:26.803Z,99.90
2019-03-08T22:48:57.251Z,99.90
2019-03-08T22:51:28.029Z,99.90
2019-03-08T22:53:58.313Z,99.90
2019-03-08T22:56:28.528Z,99.90
2019-03-08T22:58:58.782Z,99.90
2019-03-08T23:01:40.789Z,99.90
2019-03-08T23:04:12.177Z,99.90
2019-03-08T23:06:42.965Z,99.90
2019-03-08T23:09:13.975Z,99.90
2019-03-08T23:11:45.091Z,99.90
2019-03-08T23:14:15.405Z,99.90
2019-03-08T23:16:45.633Z,99.90
2019-03-08T23:19:16.320Z,99.90
2019-03-08T23:21:46.837Z,99.90
2019-03-08T23:24:17.405Z,99.90
2019-03-08T23:26:58.678Z,99.90
2019-03-08T23:29:32.337Z,99.90
2019-03-08T23:32:07.936Z,99.90
2019-03-08T23:34:38.543Z,99.90
2019-03-08T23:37:09.954Z,99.90
2019-03-08T23:39:40.153Z,99.90
2019-03-08T23:42:11.939Z,99.90
2019-03-08T23:44:42.291Z,99.90
2019-03-08T23:47:12.572Z,99.90
2019-03-08T23:49:43.070Z,99.90
2019-03-08T23:52:13.248Z,99.90
2019-03-08T23:54:43.835Z,99.90
2019-03-08T23:57:14.293Z,99.90
2019-03-08T23:59:44.576Z,99.90
